Time;durP1;ratioP1;P1;durP2;ratioP2;P2;SDS_P1;SDS_P2;PMS_P1;PMS_P2;Temp;Humidity;BMP_temperature;BMP_pressure;BME280_temperature;BME280_humidity;BME280_pressure;Samples;Min_cycle;Max_cycle;Signal;HPM_P1;HPM_P2
2023/09/08 00:01:35;;;;;;;13.13;9.25;;;;;;;;;;5052553;28;20028;-73
2023/09/08 00:04:00;;;;;;;19.77;9.33;;;;;;;;;;5053796;28;20024;-72
2023/09/08 00:06:26;;;;;;;15.20;8.80;;;;;;;;;;5054181;28;20263;-72
2023/09/08 00:08:51;;;;;;;13.47;9.37;;;;;;;;;;5053762;28;20111;-72
2023/09/08 00:11:16;;;;;;;13.07;9.00;;;;;;;;;;5053580;28;20025;-74
2023/09/08 00:13:42;;;;;;;15.15;9.52;;;;;;;;;;5053555;28;20028;-72
2023/09/08 00:16:09;;;;;;;15.07;9.60;;;;;;;;;;5052435;28;20066;-72
2023/09/08 00:18:35;;;;;;;11.82;8.93;;;;;;;;;;5053460;28;20262;-72
2023/09/08 00:21:00;;;;;;;17.20;9.40;;;;;;;;;;5053667;28;20017;-72
2023/09/08 00:23:27;;;;;;;14.77;8.70;;;;;;;;;;5052176;28;20049;-73
2023/09/08 00:25:52;;;;;;;13.35;8.95;;;;;;;;;;5052200;28;20274;-73
2023/09/08 00:28:17;;;;;;;15.13;9.60;;;;;;;;;;5053333;28;20017;-73
2023/09/08 00:30:42;;;;;;;12.25;9.05;;;;;;;;;;5054483;28;20025;-73
2023/09/08 00:33:08;;;;;;;13.50;9.73;;;;;;;;;;5056247;28;20043;-74
2023/09/08 00:35:34;;;;;;;13.68;8.65;;;;;;;;;;5054953;28;20017;-73
2023/09/08 00:37:59;;;;;;;18.45;9.43;;;;;;;;;;5053289;28;20024;-73
2023/09/08 00:40:26;;;;;;;12.57;9.07;;;;;;;;;;5053414;28;20023;-73
2023/09/08 00:42:51;;;;;;;19.95;9.68;;;;;;;;;;5053258;28;20033;-73
2023/09/08 00:45:16;;;;;;;16.33;9.60;;;;;;;;;;5053234;28;20443;-73
2023/09/08 00:47:41;;;;;;;16.00;8.83;;;;;;;;;;5053264;28;20013;-74
2023/09/08 00:50:07;;;;;;;13.63;9.65;;;;;;;;;;5051783;28;20362;-73
2023/09/08 00:52:33;;;;;;;12.95;9.43;;;;;;;;;;5053020;28;20446;-73
2023/09/08 00:54:59;;;;;;;12.90;8.95;;;;;;;;;;5053168;28;20052;-73
2023/09/08 00:57:24;;;;;;;17.58;9.70;;;;;;;;;;5059521;28;20104;-74
2023/09/08 00:59:50;;;;;;;13.45;9.65;;;;;;;;;;5059670;28;20468;-73
2023/09/08 01:02:15;;;;;;;12.45;9.65;;;;;;;;;;5058445;28;20024;-72
2023/09/08 01:04:41;;;;;;;14.57;9.50;;;;;;;;;;5059467;28;20032;-72
2023/09/08 01:07:07;;;;;;;16.42;9.80;;;;;;;;;;5060125;28;20332;-72
2023/09/08 01:09:32;;;;;;;14.40;9.95;;;;;;;;;;5069726;28;20021;-72
2023/09/08 01:12:01;;;;;;;19.55;9.82;;;;;;;;;;5059665;28;20170;-72
2023/09/08 01:14:27;;;;;;;15.25;9.75;;;;;;;;;;5058445;28;20035;-73
2023/09/08 01:16:52;;;;;;;13.85;9.73;;;;;;;;;;5059630;28;20096;-72
2023/09/08 01:19:18;;;;;;;11.50;9.40;;;;;;;;;;5059518;28;20016;-72
2023/09/08 01:21:43;;;;;;;14.55;9.70;;;;;;;;;;5058307;28;20017;-72
2023/09/08 01:24:11;;;;;;;14.73;9.90;;;;;;;;;;5058826;28;20472;-72
2023/09/08 01:26:37;;;;;;;16.27;9.75;;;;;;;;;;5059613;28;20274;-73
2023/09/08 01:29:03;;;;;;;13.48;10.10;;;;;;;;;;5059648;28;20120;-72
2023/09/08 01:31:28;;;;;;;12.13;9.32;;;;;;;;;;5058302;28;20053;-72
2023/09/08 01:33:54;;;;;;;14.52;10.00;;;;;;;;;;5059305;28;20032;-72
2023/09/08 01:36:19;;;;;;;16.58;10.38;;;;;;;;;;5058012;28;20381;-71
2023/09/08 01:38:44;;;;;;;13.17;9.73;;;;;;;;;;5059661;28;20020;-72
2023/09/08 01:41:10;;;;;;;15.30;10.40;;;;;;;;;;5059386;28;20278;-72
2023/09/08 01:43:35;;;;;;;14.33;9.70;;;;;;;;;;5059419;28;20262;-72
2023/09/08 01:46:00;;;;;;;12.17;10.30;;;;;;;;;;5057974;28;20036;-72
2023/09/08 01:48:25;;;;;;;15.47;9.83;;;;;;;;;;5059044;28;20098;-72
2023/09/08 01:50:50;;;;;;;15.57;10.03;;;;;;;;;;5059363;28;20495;-72
2023/09/08 01:53:16;;;;;;;16.93;10.23;;;;;;;;;;5059140;28;20285;-72
2023/09/08 01:55:41;;;;;;;14.23;10.57;;;;;;;;;;5059188;28;20259;-72
2023/09/08 01:58:06;;;;;;;14.07;9.83;;;;;;;;;;5059372;28;20343;-72
2023/09/08 02:00:31;;;;;;;14.03;9.63;;;;;;;;;;5059202;28;20016;-72
2023/09/08 02:02:56;;;;;;;17.10;9.90;;;;;;;;;;5059194;28;20028;-72
2023/09/08 02:05:22;;;;;;;14.37;9.57;;;;;;;;;;5059154;28;20044;-73
2023/09/08 02:07:47;;;;;;;14.25;10.27;;;;;;;;;;5054670;28;20123;-72
2023/09/08 02:10:12;;;;;;;13.43;10.20;;;;;;;;;;5054625;28;20017;-71
2023/09/08 02:12:37;;;;;;;14.07;10.55;;;;;;;;;;5055919;28;20259;-71
2023/09/08 02:15:04;;;;;;;15.17;10.37;;;;;;;;;;5055929;28;20013;-72
2023/09/08 02:17:29;;;;;;;16.60;10.57;;;;;;;;;;5055829;28;20092;-71
2023/09/08 02:19:55;;;;;;;14.33;10.30;;;;;;;;;;5056129;28;20103;-71
2023/09/08 02:22:20;;;;;;;20.30;10.17;;;;;;;;;;5055852;28;20337;-71
2023/09/08 02:24:45;;;;;;;14.00;9.98;;;;;;;;;;5055754;28;20465;-72
2023/09/08 02:27:10;;;;;;;13.57;10.53;;;;;;;;;;5055708;28;20492;-72
2023/09/08 02:29:36;;;;;;;14.47;9.93;;;;;;;;;;5054403;28;20021;-72
2023/09/08 02:32:01;;;;;;;14.98;10.30;;;;;;;;;;5055588;28;20024;-72
2023/09/08 02:34:26;;;;;;;16.67;10.63;;;;;;;;;;5055580;28;20060;-72
2023/09/08 02:36:51;;;;;;;15.73;10.60;;;;;;;;;;5055827;28;20327;-72
2023/09/08 02:39:16;;;;;;;14.70;10.50;;;;;;;;;;5055486;28;20260;-72
2023/09/08 02:41:42;;;;;;;14.85;9.90;;;;;;;;;;5055394;28;20263;-72
2023/09/08 02:44:07;;;;;;;16.10;10.27;;;;;;;;;;5055445;28;20495;-72
2023/09/08 02:46:32;;;;;;;14.63;9.60;;;;;;;;;;5054454;28;20759;-72
2023/09/08 02:48:57;;;;;;;17.77;10.53;;;;;;;;;;5055100;28;20282;-72
2023/09/08 02:51:22;;;;;;;12.93;10.00;;;;;;;;;;5055202;28;20036;-72
2023/09/08 02:53:48;;;;;;;15.10;10.05;;;;;;;;;;5055163;28;20291;-72
2023/09/08 02:56:13;;;;;;;16.67;10.47;;;;;;;;;;5054277;28;20594;-71
2023/09/08 02:58:38;;;;;;;12.77;10.52;;;;;;;;;;5055117;28;20105;-72
2023/09/08 03:01:14;;;;;;;16.40;10.90;;;;;;;;;;5055080;28;20021;-73
2023/09/08 03:03:39;;;;;;;16.50;10.38;;;;;;;;;;5055036;28;20082;-72
2023/09/08 03:06:05;;;;;;;20.38;10.73;;;;;;;;;;5055088;28;20016;-72
2023/09/08 03:08:30;;;;;;;16.90;10.67;;;;;;;;;;5054988;28;20083;-72
2023/09/08 03:10:57;;;;;;;20.23;10.68;;;;;;;;;;5053447;28;20264;-72
2023/09/08 03:13:22;;;;;;;14.60;10.50;;;;;;;;;;5053474;28;20028;-73
2023/09/08 03:15:47;;;;;;;14.13;11.03;;;;;;;;;;5053475;28;20021;-72
2023/09/08 03:18:12;;;;;;;13.90;10.30;;;;;;;;;;5052802;28;20289;-71
2023/09/08 03:20:37;;;;;;;13.33;10.37;;;;;;;;;;5052921;28;20036;-72
2023/09/08 03:23:03;;;;;;;15.73;10.87;;;;;;;;;;5054469;28;20017;-71
2023/09/08 03:25:28;;;;;;;14.77;11.02;;;;;;;;;;5054482;28;20113;-72
2023/09/08 03:27:53;;;;;;;15.80;10.77;;;;;;;;;;5054471;28;20021;-73
2023/09/08 03:30:18;;;;;;;14.27;11.47;;;;;;;;;;5054603;28;20259;-72
2023/09/08 03:32:44;;;;;;;18.23;11.52;;;;;;;;;;5054317;28;20028;-72
2023/09/08 03:35:09;;;;;;;15.55;11.05;;;;;;;;;;5054506;28;20017;-72
2023/09/08 03:37:35;;;;;;;16.20;12.20;;;;;;;;;;5054245;28;20100;-72
2023/09/08 03:40:00;;;;;;;18.17;11.83;;;;;;;;;;5053059;28;20025;-73
2023/09/08 03:42:25;;;;;;;13.60;10.90;;;;;;;;;;5054366;28;20347;-72
2023/09/08 03:44:50;;;;;;;16.27;11.70;;;;;;;;;;5052957;28;20295;-73
2023/09/08 03:47:16;;;;;;;17.17;11.20;;;;;;;;;;5054025;28;20043;-72
2023/09/08 03:49:41;;;;;;;20.00;12.00;;;;;;;;;;5052694;28;20309;-72
2023/09/08 03:52:06;;;;;;;18.45;11.27;;;;;;;;;;5052809;28;20267;-72
2023/09/08 03:54:32;;;;;;;15.02;11.82;;;;;;;;;;5054078;28;20024;-72
2023/09/08 03:56:57;;;;;;;16.88;11.88;;;;;;;;;;5052763;28;20024;-72
2023/09/08 03:59:22;;;;;;;18.23;11.30;;;;;;;;;;5054118;28;20407;-73
2023/09/08 04:01:47;;;;;;;14.97;11.23;;;;;;;;;;5053922;28;20100;-72
2023/09/08 04:04:13;;;;;;;17.13;11.50;;;;;;;;;;5053890;28;20017;-73
2023/09/08 04:06:38;;;;;;;16.03;11.27;;;;;;;;;;5053764;28;20755;-73
2023/09/08 04:09:03;;;;;;;14.73;11.60;;;;;;;;;;5053907;28;20024;-72
2023/09/08 04:11:28;;;;;;;16.75;11.45;;;;;;;;;;5053571;28;20496;-72
2023/09/08 04:13:53;;;;;;;17.80;11.77;;;;;;;;;;5052301;28;20027;-73
2023/09/08 04:16:19;;;;;;;17.73;11.17;;;;;;;;;;5053559;28;20265;-72
2023/09/08 04:18:44;;;;;;;16.93;11.73;;;;;;;;;;5053514;28;20346;-73
2023/09/08 04:21:09;;;;;;;17.80;11.35;;;;;;;;;;5052588;28;20472;-73
2023/09/08 04:23:35;;;;;;;15.00;11.73;;;;;;;;;;5052168;28;20020;-72
2023/09/08 04:26:00;;;;;;;18.05;11.75;;;;;;;;;;5053469;28;20021;-73
2023/09/08 04:28:26;;;;;;;17.23;11.63;;;;;;;;;;5052149;28;20070;-73
2023/09/08 04:30:51;;;;;;;17.37;12.20;;;;;;;;;;5052034;28;20112;-72
2023/09/08 04:33:16;;;;;;;17.77;12.10;;;;;;;;;;5051979;28;20693;-72
2023/09/08 04:35:41;;;;;;;18.73;12.37;;;;;;;;;;5053396;28;20052;-73
2023/09/08 04:38:07;;;;;;;16.83;12.80;;;;;;;;;;5053403;28;20105;-72
2023/09/08 04:40:32;;;;;;;20.27;12.68;;;;;;;;;;5053327;28;20260;-72
2023/09/08 04:42:57;;;;;;;19.63;12.60;;;;;;;;;;5051948;28;20024;-72
2023/09/08 04:45:22;;;;;;;20.33;12.57;;;;;;;;;;5053157;28;20036;-72
2023/09/08 04:47:49;;;;;;;18.17;12.60;;;;;;;;;;5053446;28;20079;-72
2023/09/08 04:50:14;;;;;;;20.48;12.93;;;;;;;;;;5051864;28;20292;-72
2023/09/08 04:52:40;;;;;;;18.02;12.82;;;;;;;;;;5053067;28;20070;-72
2023/09/08 04:55:05;;;;;;;18.25;12.32;;;;;;;;;;5055366;28;20020;-72
2023/09/08 04:57:30;;;;;;;19.27;12.63;;;;;;;;;;5053159;28;20371;-72
2023/09/08 04:59:56;;;;;;;20.07;12.40;;;;;;;;;;5053376;28;20017;-72
2023/09/08 05:02:21;;;;;;;21.35;13.40;;;;;;;;;;5053733;28;20302;-72
2023/09/08 05:04:46;;;;;;;19.75;13.38;;;;;;;;;;5053129;28;20021;-73
2023/09/08 05:07:13;;;;;;;18.55;13.32;;;;;;;;;;5051730;28;20017;-73
2023/09/08 05:09:38;;;;;;;22.92;13.85;;;;;;;;;;5051649;28;20044;-73
2023/09/08 05:12:03;;;;;;;20.42;13.68;;;;;;;;;;5053122;28;20040;-72
2023/09/08 05:14:29;;;;;;;18.35;13.45;;;;;;;;;;5051701;28;20017;-72
2023/09/08 05:16:56;;;;;;;18.45;13.20;;;;;;;;;;5052060;28;20037;-72
2023/09/08 05:19:22;;;;;;;18.58;13.05;;;;;;;;;;5051874;28;20120;-73
2023/09/08 05:21:47;;;;;;;21.08;13.52;;;;;;;;;;5052318;28;20017;-74
2023/09/08 05:24:12;;;;;;;20.07;13.73;;;;;;;;;;5051597;28;20431;-72
2023/09/08 05:26:41;;;;;;;18.57;13.40;;;;;;;;;;5052946;28;20105;-72
2023/09/08 05:29:06;;;;;;;21.65;15.00;;;;;;;;;;5051495;28;20317;-73
2023/09/08 05:31:31;;;;;;;21.13;14.10;;;;;;;;;;5052944;28;20484;-73
2023/09/08 05:33:56;;;;;;;22.63;14.37;;;;;;;;;;5052701;28;20839;-73
2023/09/08 05:36:21;;;;;;;21.33;13.47;;;;;;;;;;5052904;28;20028;-72
2023/09/08 05:38:47;;;;;;;19.80;13.82;;;;;;;;;;5053330;28;20429;-73
2023/09/08 05:41:12;;;;;;;18.03;13.23;;;;;;;;;;5056051;28;20391;-74
2023/09/08 05:43:37;;;;;;;19.47;13.33;;;;;;;;;;5059916;28;20067;-72
2023/09/08 05:46:03;;;;;;;22.20;13.90;;;;;;;;;;5063566;28;20358;-73
2023/09/08 05:48:29;;;;;;;19.95;13.63;;;;;;;;;;5055338;28;20046;-72
2023/09/08 05:50:54;;;;;;;20.47;14.10;;;;;;;;;;5056880;28;20594;-72
2023/09/08 05:53:19;;;;;;;20.90;13.55;;;;;;;;;;5056636;28;20284;-72
2023/09/08 05:55:44;;;;;;;19.83;13.07;;;;;;;;;;5057065;28;20013;-73
2023/09/08 05:58:10;;;;;;;20.55;12.95;;;;;;;;;;5056226;28;20067;-72
2023/09/08 06:00:36;;;;;;;20.77;13.52;;;;;;;;;;5055213;28;20103;-73
2023/09/08 06:03:01;;;;;;;20.33;13.68;;;;;;;;;;5056318;28;20025;-72
2023/09/08 06:05:26;;;;;;;16.37;12.57;;;;;;;;;;5056294;28;20092;-72
2023/09/08 06:07:51;;;;;;;17.83;12.83;;;;;;;;;;5056313;28;20017;-73
2023/09/08 06:10:16;;;;;;;23.27;13.18;;;;;;;;;;5056392;28;20021;-73
2023/09/08 06:12:43;;;;;;;25.37;12.50;;;;;;;;;;5056375;28;20017;-72
2023/09/08 06:15:08;;;;;;;17.77;11.93;;;;;;;;;;5055087;28;20268;-72
2023/09/08 06:17:33;;;;;;;20.00;13.25;;;;;;;;;;5056432;28;20017;-72
2023/09/08 06:19:58;;;;;;;20.90;12.57;;;;;;;;;;5056440;28;20080;-73
2023/09/08 06:22:24;;;;;;;19.73;12.50;;;;;;;;;;5060144;28;20021;-72
2023/09/08 06:24:49;;;;;;;18.40;11.70;;;;;;;;;;5058391;28;20048;-72
2023/09/08 06:27:14;;;;;;;15.82;12.25;;;;;;;;;;5059185;28;20483;-73
2023/09/08 06:29:42;;;;;;;16.17;11.43;;;;;;;;;;5056734;28;20074;-72
2023/09/08 06:32:07;;;;;;;18.52;11.98;;;;;;;;;;5057442;28;20025;-73
2023/09/08 06:34:34;;;;;;;16.53;10.83;;;;;;;;;;5054216;28;20032;-73
2023/09/08 06:36:59;;;;;;;19.77;11.68;;;;;;;;;;5054382;28;20024;-73
2023/09/08 06:39:25;;;;;;;15.67;11.27;;;;;;;;;;5065580;28;20013;-74
2023/09/08 06:41:50;;;;;;;16.77;10.95;;;;;;;;;;5056686;28;20021;-73
2023/09/08 06:44:15;;;;;;;16.87;10.80;;;;;;;;;;5054610;28;20056;-73
2023/09/08 06:46:41;;;;;;;14.03;10.23;;;;;;;;;;5057267;28;20472;-74
2023/09/08 06:49:06;;;;;;;12.93;9.93;;;;;;;;;;5055674;28;20063;-75
2023/09/08 06:51:32;;;;;;;13.90;10.00;;;;;;;;;;5057222;28;20005;-75
2023/09/08 06:53:57;;;;;;;16.35;10.10;;;;;;;;;;5053783;28;20480;-75
2023/09/08 06:56:22;;;;;;;16.35;9.52;;;;;;;;;;5056551;28;20099;-75
2023/09/08 06:58:48;;;;;;;15.60;9.90;;;;;;;;;;5058261;28;20501;-76
2023/09/08 07:01:13;;;;;;;11.80;8.80;;;;;;;;;;5068608;28;20024;-75
2023/09/08 07:03:38;;;;;;;14.10;8.50;;;;;;;;;;5058089;28;20278;-76
2023/09/08 07:06:03;;;;;;;10.80;7.57;;;;;;;;;;5054369;28;20468;-75
2023/09/08 07:08:29;;;;;;;13.35;7.60;;;;;;;;;;5055833;28;20616;-74
2023/09/08 07:10:54;;;;;;;9.60;7.03;;;;;;;;;;5059031;28;20013;-76
2023/09/08 07:13:19;;;;;;;11.13;6.90;;;;;;;;;;5056098;28;20036;-76
2023/09/08 07:15:44;;;;;;;11.40;6.80;;;;;;;;;;5055996;28;20024;-76
2023/09/08 07:18:09;;;;;;;10.83;6.40;;;;;;;;;;5056158;28;20013;-76
2023/09/08 07:20:35;;;;;;;8.60;6.27;;;;;;;;;;5055157;28;20055;-75
2023/09/08 07:23:00;;;;;;;12.40;6.43;;;;;;;;;;5058410;28;20100;-75
2023/09/08 07:25:25;;;;;;;8.30;6.10;;;;;;;;;;5057969;28;20025;-74
2023/09/08 07:27:52;;;;;;;8.50;6.40;;;;;;;;;;5056487;28;20166;-76
2023/09/08 07:30:17;;;;;;;11.98;6.40;;;;;;;;;;5039984;28;20025;-75
2023/09/08 07:32:43;;;;;;;12.33;6.33;;;;;;;;;;5061623;28;20071;-75
2023/09/08 07:35:13;;;;;;;8.85;5.80;;;;;;;;;;5057589;28;20024;-76
2023/09/08 07:37:39;;;;;;;11.95;5.88;;;;;;;;;;5055408;28;20025;-76
2023/09/08 07:40:05;;;;;;;8.82;5.80;;;;;;;;;;5056301;28;20024;-75
2023/09/08 07:42:30;;;;;;;8.40;5.63;;;;;;;;;;5056418;28;20074;-73
2023/09/08 07:44:55;;;;;;;6.43;5.07;;;;;;;;;;5052763;28;20133;-76
2023/09/08 07:47:20;;;;;;;11.43;5.20;;;;;;;;;;5053904;28;20024;-75
2023/09/08 07:49:49;;;;;;;7.57;5.10;;;;;;;;;;5053851;28;20090;-76
2023/09/08 07:52:14;;;;;;;7.82;5.30;;;;;;;;;;5051607;28;20009;-76
2023/09/08 07:54:39;;;;;;;5.93;5.15;;;;;;;;;;5051723;28;20025;-74
2023/09/08 07:57:05;;;;;;;8.30;4.83;;;;;;;;;;5052942;28;20013;-77
2023/09/08 07:59:30;;;;;;;6.80;4.83;;;;;;;;;;5051258;28;20021;-76
2023/09/08 08:01:55;;;;;;;11.82;5.07;;;;;;;;;;5051321;28;20289;-76
2023/09/08 08:04:21;;;;;;;10.77;4.80;;;;;;;;;;5050925;28;20564;-77
2023/09/08 08:06:47;;;;;;;8.03;5.10;;;;;;;;;;5051427;28;20484;-76
2023/09/08 08:09:12;;;;;;;7.25;4.70;;;;;;;;;;5052078;28;20419;-78
2023/09/08 08:11:37;;;;;;;8.03;4.57;;;;;;;;;;5052389;28;20020;-78
2023/09/08 08:14:03;;;;;;;10.90;4.70;;;;;;;;;;5052763;28;20283;-78
2023/09/08 08:16:28;;;;;;;9.37;4.60;;;;;;;;;;5054130;28;20023;-77
2023/09/08 08:18:53;;;;;;;7.60;4.50;;;;;;;;;;5052816;28;20025;-75
2023/09/08 08:21:19;;;;;;;11.40;4.60;;;;;;;;;;5052509;28;20017;-76
2023/09/08 08:23:44;;;;;;;7.90;4.60;;;;;;;;;;5052383;28;20024;-76
2023/09/08 08:26:09;;;;;;;6.93;4.50;;;;;;;;;;5054216;28;20482;-76
2023/09/08 08:28:34;;;;;;;8.83;4.30;;;;;;;;;;5053956;28;20017;-76
2023/09/08 08:30:59;;;;;;;7.73;4.40;;;;;;;;;;5052399;28;20263;-76
2023/09/08 08:33:25;;;;;;;9.70;4.40;;;;;;;;;;5053457;28;20491;-75
2023/09/08 08:35:51;;;;;;;5.65;4.50;;;;;;;;;;5053336;28;20017;-75
2023/09/08 08:38:16;;;;;;;11.15;4.68;;;;;;;;;;5052105;28;20024;-75
2023/09/08 08:40:42;;;;;;;11.43;4.70;;;;;;;;;;5053300;28;20191;-75
2023/09/08 08:43:07;;;;;;;9.27;5.03;;;;;;;;;;5052225;28;20112;-75
2023/09/08 08:45:32;;;;;;;9.37;4.67;;;;;;;;;;5053314;28;20071;-76
2023/09/08 08:47:58;;;;;;;8.00;4.85;;;;;;;;;;5053346;28;20317;-76
2023/09/08 08:50:24;;;;;;;8.98;4.85;;;;;;;;;;5053322;28;20385;-76
2023/09/08 08:52:49;;;;;;;8.18;4.80;;;;;;;;;;5051876;28;20384;-77
2023/09/08 08:55:15;;;;;;;9.25;4.65;;;;;;;;;;5053152;28;20127;-76
2023/09/08 08:57:41;;;;;;;11.88;4.97;;;;;;;;;;5053535;28;20021;-74
2023/09/08 09:00:15;;;;;;;6.95;4.80;;;;;;;;;;5051827;28;20059;-76
2023/09/08 09:02:41;;;;;;;8.70;4.95;;;;;;;;;;5055013;28;20028;-76
2023/09/08 09:05:08;;;;;;;7.53;4.40;;;;;;;;;;5054131;28;20388;-74
2023/09/08 09:07:33;;;;;;;7.63;4.85;;;;;;;;;;5054786;28;20060;-77
2023/09/08 09:09:58;;;;;;;6.33;4.13;;;;;;;;;;5053757;28;20024;-77
2023/09/08 09:12:23;;;;;;;6.47;4.33;;;;;;;;;;5050523;28;20773;-74
2023/09/08 09:14:52;;;;;;;8.60;4.50;;;;;;;;;;5051514;28;20275;-77
2023/09/08 09:17:17;;;;;;;7.40;4.53;;;;;;;;;;5056077;28;20078;-76
2023/09/08 09:19:42;;;;;;;7.13;4.53;;;;;;;;;;5057206;28;20025;-76
2023/09/08 09:22:08;;;;;;;7.97;4.40;;;;;;;;;;5055734;28;20017;-75
2023/09/08 09:24:36;;;;;;;6.43;4.60;;;;;;;;;;5054276;28;20271;-75
2023/09/08 09:27:01;;;;;;;8.25;4.53;;;;;;;;;;5053736;28;20424;-75
2023/09/08 09:29:27;;;;;;;8.30;4.68;;;;;;;;;;5057026;28;20013;-75
2023/09/08 09:31:54;;;;;;;6.10;4.47;;;;;;;;;;5057339;28;20029;-77
2023/09/08 09:34:20;;;;;;;8.00;4.13;;;;;;;;;;5057143;28;20361;-76
2023/09/08 09:36:48;;;;;;;6.32;4.20;;;;;;;;;;5056484;28;20017;-76
2023/09/08 09:39:15;;;;;;;10.02;4.60;;;;;;;;;;5056785;28;20170;-76
2023/09/08 09:41:41;;;;;;;8.52;4.80;;;;;;;;;;5056909;28;20150;-77
2023/09/08 09:44:06;;;;;;;9.07;5.43;;;;;;;;;;5055102;28;20123;-76
2023/09/08 09:46:31;;;;;;;7.00;4.47;;;;;;;;;;5056583;28;20029;-75
2023/09/08 09:48:56;;;;;;;7.20;4.67;;;;;;;;;;5056479;28;20298;-76
2023/09/08 09:51:22;;;;;;;6.53;4.30;;;;;;;;;;5057061;28;20025;-76
2023/09/08 09:53:49;;;;;;;6.30;4.40;;;;;;;;;;5054970;28;20287;-76
2023/09/08 09:56:16;;;;;;;8.93;4.30;;;;;;;;;;5056376;28;20017;-76
2023/09/08 09:58:42;;;;;;;9.43;4.28;;;;;;;;;;5057382;28;20100;-76
2023/09/08 10:01:07;;;;;;;7.00;3.80;;;;;;;;;;5056355;28;20052;-76
2023/09/08 10:03:33;;;;;;;7.90;3.78;;;;;;;;;;5057594;28;20036;-76
2023/09/08 10:05:58;;;;;;;9.82;3.85;;;;;;;;;;5056320;28;20017;-74
2023/09/08 10:08:24;;;;;;;10.35;4.05;;;;;;;;;;5056288;28;20479;-76
2023/09/08 10:10:50;;;;;;;6.23;4.10;;;;;;;;;;5056083;28;20024;-76
2023/09/08 10:13:19;;;;;;;8.30;4.30;;;;;;;;;;5055868;28;20094;-76
2023/09/08 10:15:46;;;;;;;7.47;4.00;;;;;;;;;;5054601;28;20408;-77
2023/09/08 10:18:14;;;;;;;4.93;3.60;;;;;;;;;;5056211;28;20021;-76
2023/09/08 10:20:40;;;;;;;10.07;3.90;;;;;;;;;;5055158;28;20021;-76
2023/09/08 10:23:05;;;;;;;6.18;3.58;;;;;;;;;;5056306;28;20024;-77
2023/09/08 10:25:31;;;;;;;7.23;4.00;;;;;;;;;;5056231;28;20025;-77
2023/09/08 10:27:57;;;;;;;6.70;3.90;;;;;;;;;;5055234;28;20041;-75
2023/09/08 10:30:22;;;;;;;10.68;4.38;;;;;;;;;;5054831;28;20017;-75
2023/09/08 10:32:49;;;;;;;8.88;3.83;;;;;;;;;;5056136;28;20048;-77
2023/09/08 10:35:17;;;;;;;6.53;4.03;;;;;;;;;;5056190;28;20032;-75
2023/09/08 10:37:42;;;;;;;7.35;3.72;;;;;;;;;;5054289;28;20021;-75
2023/09/08 10:40:19;;;;;;;7.00;3.93;;;;;;;;;;5055517;28;20019;-76
2023/09/08 10:42:45;;;;;;;5.72;3.83;;;;;;;;;;5054831;28;20020;-75
2023/09/08 10:45:17;;;;;;;6.60;3.83;;;;;;;;;;5056633;28;20498;-75
2023/09/08 10:47:45;;;;;;;7.32;4.05;;;;;;;;;;5054236;28;20035;-75
2023/09/08 10:50:17;;;;;;;7.80;3.83;;;;;;;;;;5054476;28;20049;-75
2023/09/08 10:52:43;;;;;;;7.85;4.15;;;;;;;;;;5053890;28;20114;-76
2023/09/08 10:55:08;;;;;;;10.85;4.28;;;;;;;;;;5053785;28;20060;-76
2023/09/08 10:57:33;;;;;;;7.07;3.85;;;;;;;;;;5054244;28;20012;-74
2023/09/08 11:00:01;;;;;;;12.07;4.03;;;;;;;;;;5055695;28;20024;-75
2023/09/08 11:02:42;;;;;;;7.00;4.10;;;;;;;;;;5055136;28;20020;-76
2023/09/08 11:05:13;;;;;;;7.53;3.75;;;;;;;;;;5054884;28;20082;-75
2023/09/08 11:07:38;;;;;;;6.13;3.90;;;;;;;;;;5055071;28;20009;-77
2023/09/08 11:10:04;;;;;;;7.82;3.90;;;;;;;;;;5054878;28;20380;-75
2023/09/08 11:12:30;;;;;;;7.75;3.97;;;;;;;;;;5054863;28;20472;-76
2023/09/08 11:14:55;;;;;;;11.00;3.92;;;;;;;;;;5057257;28;20028;-75
2023/09/08 11:17:20;;;;;;;5.63;4.07;;;;;;;;;;5057060;28;20052;-75
2023/09/08 11:19:49;;;;;;;7.43;3.97;;;;;;;;;;5054834;28;20100;-75
2023/09/08 11:22:16;;;;;;;5.55;3.70;;;;;;;;;;5054963;28;20024;-76
2023/09/08 11:24:42;;;;;;;6.30;4.15;;;;;;;;;;5055067;28;20025;-77
2023/09/08 11:27:07;;;;;;;9.77;3.72;;;;;;;;;;5054877;28;20071;-77
2023/09/08 11:29:32;;;;;;;7.80;3.95;;;;;;;;;;5054809;28;20020;-76
2023/09/08 11:31:58;;;;;;;11.87;4.10;;;;;;;;;;5053484;28;20036;-76
2023/09/08 11:34:23;;;;;;;8.75;4.05;;;;;;;;;;5054729;28;20029;-77
2023/09/08 11:36:48;;;;;;;7.03;4.10;;;;;;;;;;5053232;28;20028;-76
2023/09/08 11:39:14;;;;;;;12.53;3.80;;;;;;;;;;5053873;28;20329;-76
2023/09/08 11:41:39;;;;;;;5.90;3.80;;;;;;;;;;5053925;28;20082;-76
2023/09/08 11:44:04;;;;;;;8.27;4.00;;;;;;;;;;5052940;28;20017;-76
2023/09/08 11:46:30;;;;;;;6.22;3.75;;;;;;;;;;5053365;28;20083;-77
2023/09/08 11:48:55;;;;;;;6.28;3.70;;;;;;;;;;5053113;28;20037;-78
2023/09/08 11:51:24;;;;;;;8.13;3.78;;;;;;;;;;5053232;28;20017;-76
2023/09/08 11:53:49;;;;;;;9.10;3.83;;;;;;;;;;5054291;28;20029;-76
2023/09/08 11:56:14;;;;;;;10.05;3.60;;;;;;;;;;5053016;28;20021;-75
2023/09/08 11:58:41;;;;;;;8.63;4.00;;;;;;;;;;5052875;28;20020;-76
2023/09/08 12:01:06;;;;;;;6.35;3.80;;;;;;;;;;5054189;28;20021;-77
2023/09/08 12:03:32;;;;;;;6.38;3.88;;;;;;;;;;5053955;28;20020;-77
2023/09/08 12:05:58;;;;;;;6.13;3.93;;;;;;;;;;5054116;28;20054;-77
2023/09/08 12:08:25;;;;;;;8.20;4.18;;;;;;;;;;5054378;28;20044;-76
2023/09/08 12:10:53;;;;;;;7.97;4.38;;;;;;;;;;5053849;28;20510;-78
2023/09/08 12:13:22;;;;;;;7.70;4.00;;;;;;;;;;5053924;28;20013;-76
2023/09/08 12:15:47;;;;;;;5.88;3.88;;;;;;;;;;5052621;28;20024;-76
2023/09/08 12:18:15;;;;;;;10.90;4.22;;;;;;;;;;5052170;28;20548;-76
2023/09/08 12:20:40;;;;;;;7.97;4.18;;;;;;;;;;5049856;28;20041;-76
2023/09/08 12:23:14;;;;;;;8.15;4.15;;;;;;;;;;5052168;28;20047;-76
2023/09/08 12:25:46;;;;;;;5.30;4.07;;;;;;;;;;5052902;28;20482;-75
2023/09/08 12:28:11;;;;;;;;;;;;;;;;;;5052145;28;20053;-75
2023/09/08 12:30:36;;;;;;;7.75;4.05;;;;;;;;;;5052416;28;19905;-76
2023/09/08 12:33:02;;;;;;;9.50;4.27;;;;;;;;;;5052745;28;20435;-76
2023/09/08 12:35:28;;;;;;;5.78;4.03;;;;;;;;;;5053281;28;20031;-76
2023/09/08 12:37:58;;;;;;;10.43;4.35;;;;;;;;;;5053022;28;20383;-75
2023/09/08 12:40:24;;;;;;;13.57;4.97;;;;;;;;;;5052987;28;20104;-77
2023/09/08 12:42:49;;;;;;;6.25;4.72;;;;;;;;;;5056815;28;20051;-76
2023/09/08 12:45:15;;;;;;;10.93;4.23;;;;;;;;;;5053598;28;20492;-75
2023/09/08 12:47:40;;;;;;;7.53;4.38;;;;;;;;;;5051889;28;20029;-76
2023/09/08 12:50:05;;;;;;;11.03;4.67;;;;;;;;;;5053436;28;20132;-76
2023/09/08 12:52:31;;;;;;;12.85;4.47;;;;;;;;;;5053202;28;20454;-77
2023/09/08 12:54:56;;;;;;;7.80;4.93;;;;;;;;;;5052263;28;20622;-76
2023/09/08 12:57:22;;;;;;;12.70;4.85;;;;;;;;;;5053637;28;20031;-75
2023/09/08 12:59:47;;;;;;;8.53;4.20;;;;;;;;;;5052039;28;20032;-77
2023/09/08 13:02:12;;;;;;;12.23;4.70;;;;;;;;;;5053157;28;20048;-77
2023/09/08 13:04:37;;;;;;;11.75;4.13;;;;;;;;;;5053251;28;20274;-76
2023/09/08 13:07:03;;;;;;;6.87;4.43;;;;;;;;;;5051922;28;20115;-76
2023/09/08 13:09:28;;;;;;;8.63;4.65;;;;;;;;;;5051724;28;20032;-75
2023/09/08 13:11:53;;;;;;;8.80;4.70;;;;;;;;;;5053366;28;20083;-76
2023/09/08 13:14:18;;;;;;;11.10;4.97;;;;;;;;;;5058366;28;20055;-74
2023/09/08 13:16:43;;;;;;;9.47;4.93;;;;;;;;;;5053473;28;20104;-76
2023/09/08 13:19:09;;;;;;;10.47;4.83;;;;;;;;;;5052490;28;20259;-74
2023/09/08 13:21:34;;;;;;;9.33;4.60;;;;;;;;;;5056164;28;20376;-74
2023/09/08 13:23:59;;;;;;;8.00;4.90;;;;;;;;;;5051886;28;20032;-74
2023/09/08 13:26:24;;;;;;;7.32;4.90;;;;;;;;;;5052870;28;20495;-75
2023/09/08 13:28:50;;;;;;;7.53;4.90;;;;;;;;;;5051689;28;20104;-75
2023/09/08 13:31:15;;;;;;;13.80;5.13;;;;;;;;;;5051821;28;20023;-76
2023/09/08 13:33:40;;;;;;;8.37;4.67;;;;;;;;;;5052652;28;20021;-75
2023/09/08 13:36:05;;;;;;;9.70;4.30;;;;;;;;;;5062042;28;20028;-77
2023/09/08 13:38:30;;;;;;;7.43;4.30;;;;;;;;;;5053425;28;20558;-77
2023/09/08 13:40:56;;;;;;;22.83;5.03;;;;;;;;;;5052124;28;20051;-77
2023/09/08 13:43:21;;;;;;;6.43;4.60;;;;;;;;;;5050323;28;20023;-75
2023/09/08 13:45:46;;;;;;;8.67;4.93;;;;;;;;;;5051444;28;20025;-76
2023/09/08 13:48:11;;;;;;;10.53;4.67;;;;;;;;;;5058300;28;20031;-75
2023/09/08 13:50:39;;;;;;;7.60;5.07;;;;;;;;;;5075804;28;20040;-73
2023/09/08 13:53:04;;;;;;;8.57;4.63;;;;;;;;;;5062782;28;20465;-75
2023/09/08 13:55:29;;;;;;;8.90;5.10;;;;;;;;;;5063112;28;20043;-76
2023/09/08 13:57:55;;;;;;;12.07;5.10;;;;;;;;;;5051958;28;20022;-77
2023/09/08 14:00:20;;;;;;;9.87;4.90;;;;;;;;;;5060074;28;20432;-73
2023/09/08 14:02:45;;;;;;;10.33;4.90;;;;;;;;;;5070669;28;20025;-73
2023/09/08 14:05:10;;;;;;;5.53;4.57;;;;;;;;;;5074445;28;20017;-71
2023/09/08 14:07:35;;;;;;;9.40;4.60;;;;;;;;;;5080302;28;20052;-75
2023/09/08 14:10:01;;;;;;;11.82;5.50;;;;;;;;;;5078543;28;20032;-74
2023/09/08 14:12:27;;;;;;;8.20;4.45;;;;;;;;;;5080298;28;20085;-75
2023/09/08 14:14:52;;;;;;;8.15;4.65;;;;;;;;;;5079571;28;20044;-76
2023/09/08 14:17:17;;;;;;;8.37;4.77;;;;;;;;;;5080392;28;20084;-77
2023/09/08 14:19:42;;;;;;;9.20;5.00;;;;;;;;;;5080288;28;20009;-76
2023/09/08 14:22:08;;;;;;;9.60;5.10;;;;;;;;;;5080610;28;20023;-73